Station: Horsham  

  Atmospheric Gas Attenuation - ITU Rec 676-11   ----------------- dB/100km -----------------
Date Time Temp RH % AH g/m3 Dew Point Wind Direction Speed kph Gust kph Barometer mB Rainfall Since 9am 24GHz 47GHz 76GHz 122GHz 134GHz 241GHz
08/05 12:40 14.5 77 9.58 10.5 32 35 1026.4 0 21.6 27.8 44.0 115.6 111.8 385.2
08/05 12:30 14.9 76 9.69 10.7 32 39 1026.5 0 21.8 27.9 44.3 116.2 112.7 388.5
08/05 12:20 14.9 75 9.56 10.5 30 35 1026.6 0 21.6 27.6 43.7 114.8 110.9 382.3
08/05 12:10 14.8 77 9.75 10.8 32 37 1026.6 0 22.0 28.0 44.6 117.0 113.7 391.9
08/05 12:00 14.7 76 9.57 10.5 33 43 1026.7 0 21.6 27.7 43.9 115.2 111.4 383.8
08/05 11:50 14.3 78 9.58 10.5 30 35 1026.6 0 21.6 27.9 44.2 115.9 112.1 386.2
08/05 11:40 14.9 75 9.56 10.5 32 37 1026.6 0 21.6 27.6 43.7 114.8 110.9 382.3
08/05 11:30 14.1 77 9.35 10.1 32 39 1026.8 0 21.2 27.6 43.3 113.7 109.2 376.2
08/05 11:20 13.9 79 9.47 10.3 30 32 1026.7 0 21.4 27.8 43.9 115.3 111.1 382.9
08/05 11:10 13.8 78 9.29 10 30 35 1026.8 0 21.0 27.5 43.2 113.4 108.8 374.8
08/05 11:00 13.8 78 9.29 10 30 39 1026.7 0 21.0 27.5 43.2 113.4 108.8 374.8
08/05 10:50 13.8 79 9.41 10.2 30 33 1026.7 0 21.3 27.7 43.7 114.8 110.5 380.5
08/05 10:40 13.7 79 9.36 10.1 33 37 1026.7 0 21.2 27.7 43.6 114.3 109.9 378.6
08/05 10:30 13.7 81 9.59 10.5 32 39 1026.7 0 21.7 28.1 44.5 116.9 113.1 389.7
08/05 10:20 13.5 80 9.36 10.1 33 39 1026.6 0 21.2 27.7 43.7 114.6 110.2 379.6
08/05 10:10 13.5 81 9.47 10.3 32 41 1026.7 0 21.4 27.9 44.1 115.9 111.7 384.9
08/05 10:00 13.4 80 9.3 10 35 43 1026.7 0 21.1 27.7 43.5 114.1 109.5 377.2
08/05 09:50 13.5 83 9.71 10.7 28 33 1026.7 0 22.0 28.3 45.2 118.6 115.0 396.5
08/05 09:40 13 84 9.53 10.4 33 37 1026.7 0 21.6 28.2 44.7 117.3 113.3 390.3
08/05 09:30 12.8 86 9.63 10.5 33 44 1026.8 0 21.8 28.4 45.2 118.7 115.0 396.2
08/05 09:20 12.8 84 9.41 10.2 35 41 1026.7 0 21.4 28.1 44.3 116.2 111.9 385.5
08/05 09:10 12.7 86 9.57 10.4 37 41 1026.7 0 21.7 28.4 45.0 118.2 114.3 393.8
08/05 09:00 12.5 86 9.46 10.2 32 48 1026.7 0 21.5 28.2 44.7 117.2 113.0 389.4
08/05 08:50 12.3 86 9.34 10 32 35 1026.7 0.4 21.2 28.1 44.3 116.2 111.7 384.5
08/05 08:40 12.3 87 9.45 10.2 26 30 1026.6 0.4 21.5 28.3 44.7 117.4 113.2 389.9
08/05 08:30 12.2 89 9.61 10.4 22 32 1026.4 0.4 21.8 28.6 45.5 119.4 115.6 398.2
08/05 08:20 12.1 90 9.65 10.5 24 28 1026.3 0.4 21.9 28.7 45.7 120.0 116.3 400.7
08/05 08:10 11.8 91 9.58 10.4 22 26 1026.1 0.4 21.8 28.7 45.6 119.6 115.7 398.7
08/05 08:00 11.4 91 9.34 10 22 28 1025.9 0.4 21.3 28.4 44.7 117.4 112.9 388.8
08/05 07:50 11.2 93 9.43 10.1 20 24 1025.8 0.4 21.5 28.6 45.2 118.8 114.5 394.2
08/05 07:40 11.3 93 9.49 10.2 24 28 1025.7 0.4 21.6 28.6 45.4 119.3 115.2 396.6
08/05 07:30 11.6 94 9.77 10.7 28 33 1025.6 0.4 22.2 29.0 46.5 122.1 118.7 409.0
08/05 07:20 11.5 95 9.81 10.7 26 32 1025.4 0.4 22.3 29.1 46.7 122.7 119.4 411.5
08/05 07:10 11.4 95 9.75 10.6 30 33 1025.3 0.4 22.2 29.0 46.5 122.1 118.7 409.0
08/05 07:00 11.4 95 9.75 10.6 28 33 1025.4 0.4 22.2 29.1 46.5 122.1 118.7 409.0
08/05 06:50 11.4 94 9.65 10.5 22 26 1025.1 0.4 21.9 28.9 46.1 120.9 117.2 403.9
08/05 06:40 11.4 94 9.65 10.5 24 28 1024.9 0.4 21.9 28.9 46.0 120.9 117.2 403.9
08/05 06:30 11.4 95 9.75 10.6 22 28 1024.9 0.4 22.2 29.0 46.5 122.1 118.7 408.9
08/05 06:20 11.4 96 9.86 10.8 22 30 1024.8 0.4 22.4 29.2 47.0 123.3 120.2 414.4
08/05 06:10 11.4 95 9.75 10.6 24 28 1024.9 0.4 22.2 29.0 46.5 122.1 118.7 408.9
08/05 06:00 11.4 96 9.86 10.8 22 30 1025 0.4 22.4 29.2 47.0 123.4 120.2 414.4
08/05 05:50 11.3 96 9.79 10.7 20 24 1024.7 0.4 22.3 29.1 46.7 122.7 119.4 411.3
08/05 05:40 11.3 95 9.69 10.5 24 30 1024.7 0.4 22.0 29.0 46.3 121.5 117.9 406.3
08/05 05:30 11.3 96 9.79 10.7 26 35 1024.7 0.4 22.3 29.1 46.7 122.7 119.4 411.3
08/05 05:20 11.2 96 9.73 10.6 22 30 1024.5 0.4 22.1 29.0 46.5 122.1 118.6 408.8
08/05 05:10 11.3 95 9.69 10.5 22 26 1024.4 0 22.0 28.9 46.3 121.5 117.9 406.2
08/05 05:00 11.5 93 9.61 10.4 30 39 1024.5 0 21.9 28.7 45.8 120.2 116.5 401.2
08/05 04:50 11.6 93 9.67 10.5 28 33 1024.3 0 22.0 28.8 46.0 120.8 117.1 403.6
08/05 04:40 11.4 93 9.55 10.3 30 41 1024.3 0 21.7 28.7 45.6 119.7 115.7 398.7
08/05 04:30 11.7 90 9.41 10.1 33 44 1024.2 0 21.4 28.3 44.8 117.6 113.3 390.2
08/05 04:20 11.9 88 9.32 10 28 41 1023.9 0 21.2 28.1 44.3 116.2 111.7 384.7
08/05 04:10 11.9 87 9.22 9.8 33 39 1024.1 0 21.0 27.9 43.9 115.1 110.3 379.8
08/05 04:00 11.8 88 9.26 9.9 32 48 1024.2 0 21.1 28.0 44.1 115.7 111.0 382.3
08/05 03:50 11.8 87 9.16 9.7 28 33 1024.1 0 20.9 27.8 43.7 114.6 109.6 377.4
08/05 03:40 11.8 87 9.16 9.7 33 39 1024.1 0 20.9 27.8 43.7 114.6 109.6 377.4
08/05 03:30 11.7 87 9.1 9.6 30 41 1024.3 0 20.8 27.8 43.5 114.1 109.0 375.0
08/05 03:20 11.6 87 9.04 9.5 32 35 1024.3 0 20.6 27.7 43.3 113.5 108.3 372.6
08/05 03:10 11.7 87 9.1 9.6 32 39 1024.3 0 20.8 27.8 43.5 114.1 109.0 375.0
08/05 03:00 11.7 87 9.1 9.6 32 43 1024.6 0 20.8 27.8 43.5 114.1 109.0 375.1
08/05 02:50 11.6 87 9.04 9.5 28 33 1024.7 0 20.6 27.7 43.3 113.6 108.3 372.7
08/05 02:40 11.7 86 9 9.4 33 39 1024.7 0 20.5 27.6 43.1 113.0 107.6 370.2
08/05 02:30 11.6 86 8.94 9.3 30 41 1024.9 0 20.4 27.6 42.9 112.5 106.9 367.9
08/05 02:20 11.5 86 8.88 9.2 28 35 1024.8 0 20.3 27.5 42.7 111.9 106.2 365.4
08/05 02:10 11.4 86 8.83 9.1 26 32 1024.8 0 20.2 27.4 42.5 111.5 105.7 363.4
08/05 02:00 11.3 86 8.77 9 28 41 1025 0 20.1 27.4 42.3 111.0 105.0 361.0
08/05 01:50 11.3 87 8.88 9.2 32 37 1025.1 0 20.3 27.6 42.8 112.3 106.5 366.4
08/05 01:40 11.2 87 8.82 9.1 30 37 1025.3 0 20.2 27.5 42.6 111.8 105.8 364.0
08/05 01:30 11.2 86 8.72 8.9 26 33 1025.4 0 20.0 27.3 42.2 110.6 104.5 359.2
08/05 01:20 11.2 85 8.62 8.8 22 28 1025.3 0 19.7 27.2 41.8 109.5 103.1 354.3
08/05 01:10 11.1 85 8.56 8.7 24 28 1025.4 0 19.6 27.1 41.6 109.0 102.4 351.9
08/05 01:00 10.9 85 8.46 8.5 20 30 1025.5 0 19.4 27.0 41.3 108.1 101.3 348.0
08/05 00:50 11 84 8.41 8.4 20 26 1025.5 0 19.3 26.9 41.0 107.5 100.4 345.1
08/05 00:40 10.9 84 8.36 8.3 17 19 1025.8 0 19.2 26.8 40.9 107.1 99.9 343.3
08/05 00:30 10.9 84 8.36 8.3 20 28 1025.8 0 19.2 26.8 40.9 107.1 99.9 343.3
08/05 00:20 10.8 84 8.3 8.2 24 30 1026 0 19.1 26.8 40.7 106.6 99.2 340.9
08/05 00:10 10.7 83 8.15 7.9 19 20 1025.8 0 18.8 26.5 40.1 105.0 97.3 334.1
08/05 00:00 11 82 8.21 8.1 24 35 1025.8 0 18.9 26.6 40.2 105.3 97.7 335.6
07/05 23:50 11 82 8.21 8 24 28 1025.8 0 18.9 26.6 40.2 105.3 97.7 335.6
07/05 23:40 10.9 82 8.16 8 22 32 1026 0 18.8 26.5 40.0 104.9 97.2 333.7
07/05 23:30 11.2 80 8.11 7.9 26 33 1025.9 0 18.7 26.3 39.7 103.9 96.1 330.1
07/05 23:20 11.1 80 8.06 7.8 28 32 1025.9 0 18.6 26.3 39.5 103.5 95.6 328.1
07/05 23:10 11 80 8.01 7.7 22 26 1025.9 0 18.4 26.2 39.4 103.1 95.0 326.1
07/05 23:00 10.9 80 7.96 7.6 24 33 1025.8 0 18.3 26.2 39.2 102.6 94.5 324.2
07/05 22:50 10.9 80 7.96 7.6 24 30 1026 0 18.3 26.2 39.2 102.7 94.5 324.2
07/05 22:40 10.9 80 7.96 7.6 24 32 1026.1 0 18.3 26.2 39.2 102.7 94.5 324.2
07/05 22:30 10.5 81 7.86 7.4 24 33 1026.2 0 18.1 26.1 39.0 102.1 93.6 321.2
07/05 22:20 10.5 81 7.86 7.4 24 30 1026.2 0 18.1 26.1 39.0 102.1 93.6 321.2
07/05 22:10 10.6 81 7.91 7.5 22 28 1026.2 0 18.3 26.2 39.2 102.5 94.2 323.1
07/05 22:00 10.8 79 7.81 7.3 26 35 1026.1 0 18.0 26.0 38.6 101.2 92.6 317.5
07/05 21:50 11 78 7.81 7.3 24 28 1026.3 0 18.0 25.9 38.6 100.9 92.4 316.8
07/05 21:40 10.9 79 7.86 7.4 19 22 1026.3 0 18.1 26.0 38.8 101.6 93.1 319.6
07/05 21:30 10.9 79 7.86 7.4 24 33 1026.4 0 18.1 26.0 38.8 101.6 93.2 319.6
07/05 21:20 10.9 78 7.76 7.2 28 32 1026 0 17.9 25.8 38.4 100.5 91.8 314.8
07/05 21:10 11 77 7.71 7.1 24 30 1026.1 0 17.8 25.7 38.1 99.8 91.0 312.0
07/05 21:00 11.1 76 7.66 7 26 35 1026.1 0 17.7 25.6 37.9 99.1 90.2 309.3
07/05 20:50 11.1 76 7.66 7 26 32 1026.2 0 17.7 25.6 37.9 99.2 90.2 309.3
07/05 20:40 11.1 76 7.66 7 28 35 1026.2 0 17.7 25.6 37.9 99.2 90.2 309.3
07/05 20:30 11 76 7.61 6.9 22 33 1026.1 0 17.6 25.6 37.7 98.7 89.7 307.4
07/05 20:20 11.1 75 7.56 6.8 24 30 1026.3 0 17.5 25.5 37.5 98.1 88.9 304.7
07/05 20:10 11.2 72 7.3 6.3 28 33 1026.5 0 16.9 25.0 36.4 95.2 85.4 292.3

Last Refresh: 08-May-2026 12:10:13

Bureau of Meteorology